Lyon, Mississippi
Current Conditions -  °F | °C
As of 10:35 AM on Monday 24 Nov 2014 (Local Time) from KCKM Reporting Station
Clear Clear  
Wind Chill: 52°   Ceiling: Unl
Heat Index: 52°   Visibility: 10mi
Dew Point: 39°   Wind: 13mph
Humidity: 62%   Direction: 280°W
Pressure: 29.93"   Gusts: NA
Location:  34.22°N, 90.54°W
Report Text: KCKM 241635Z AUTO 28011KT 10SM CLR 11/04 A2993 RMK AO1
Loading
Personal Weather Stations






























Interactive Weather Map New forecast layout! Learn more

10-Day Weather Forecast

Advertisements
Track Severe Weather on mobile